createdAt,value
2023-01-06T00:02:09.736Z,101113.63
2023-01-06T00:04:42.908Z,101116.83
2023-01-06T00:07:19.181Z,101114.52
2023-01-06T00:09:52.030Z,101121.15
2023-01-06T00:12:26.591Z,101103.21
2023-01-06T00:14:59.020Z,101121.21
2023-01-06T00:17:31.840Z,101122.23
2023-01-06T00:20:05.010Z,101122.90
2023-01-06T00:22:38.002Z,101126.39
2023-01-06T00:25:12.471Z,101128.11
2023-01-06T00:27:47.396Z,101124.04
2023-01-06T00:30:20.441Z,101133.92
2023-01-06T00:32:53.444Z,101137.55
2023-01-06T00:35:26.027Z,101138.10
2023-01-06T00:37:58.568Z,101142.64
2023-01-06T00:40:31.037Z,101145.02
2023-01-06T00:43:05.390Z,101145.02
2023-01-06T00:45:38.495Z,101142.73
2023-01-06T00:48:10.922Z,101142.58
2023-01-06T00:50:43.929Z,101144.23
2023-01-06T00:53:16.932Z,101146.79
2023-01-06T00:55:49.454Z,101152.34
2023-01-06T00:58:22.183Z,101154.03
2023-01-06T01:00:55.788Z,101154.88
2023-01-06T01:03:28.520Z,101155.83
2023-01-06T01:06:04.483Z,101161.38
2023-01-06T01:08:37.135Z,101160.89
2023-01-06T01:11:31.381Z,101161.31
2023-01-06T01:14:04.063Z,101164.31
2023-01-06T01:16:36.501Z,101170.73
2023-01-06T01:19:09.711Z,101173.35
2023-01-06T01:21:44.637Z,101173.72
2023-01-06T01:24:17.469Z,101169.36
2023-01-06T01:26:50.734Z,101169.90
2023-01-06T01:29:23.200Z,101180.63
2023-01-06T01:31:56.587Z,101187.56
2023-01-06T01:34:29.035Z,101188.85
2023-01-06T01:37:01.859Z,101190.06
2023-01-06T01:39:34.242Z,101191.09
2023-01-06T01:42:08.313Z,101189.98
2023-01-06T01:45:05.116Z,101191.52
2023-01-06T01:47:46.011Z,101195.93
2023-01-06T01:50:31.932Z,101201.36
2023-01-06T01:53:08.785Z,101200.39
2023-01-06T01:55:43.200Z,101198.42
2023-01-06T01:58:19.783Z,101200.77
2023-01-06T02:00:52.838Z,101199.08
2023-01-06T02:03:27.540Z,101198.85
2023-01-06T02:06:02.560Z,101197.84
2023-01-06T02:08:39.496Z,101203.90
2023-01-06T02:11:12.187Z,101207.16
2023-01-06T02:13:47.740Z,101205.50
2023-01-06T02:16:40.933Z,101198.32
2023-01-06T02:19:32.413Z,101200.63
2023-01-06T02:22:23.235Z,101196.80
2023-01-06T02:25:29.586Z,101199.02
2023-01-06T02:28:23.819Z,101198.54
2023-01-06T02:31:34.897Z,101200.52
2023-01-06T02:34:15.050Z,101187.95
2023-01-06T02:36:59.819Z,101204.05
2023-01-06T02:39:45.676Z,101202.85
2023-01-06T02:42:23.771Z,101200.45
2023-01-06T02:45:04.805Z,101186.94
2023-01-06T02:47:45.260Z,101201.53
2023-01-06T02:50:25.763Z,101204.70
2023-01-06T02:53:07.872Z,101203.24
2023-01-06T02:55:45.494Z,101184.42
2023-01-06T02:58:27.749Z,101199.13
2023-01-06T03:01:04.477Z,101195.52
2023-01-06T03:03:40.810Z,101199.21
2023-01-06T03:06:17.834Z,101202.52
2023-01-06T03:08:53.354Z,101205.54
2023-01-06T03:11:28.204Z,101210.21
2023-01-06T03:14:00.973Z,101207.31
2023-01-06T03:16:33.711Z,101212.46
2023-01-06T03:19:07.040Z,101214.97
2023-01-06T03:21:44.697Z,101213.09
2023-01-06T03:24:18.809Z,101205.32
2023-01-06T03:26:53.974Z,101205.16
2023-01-06T03:29:25.432Z,101202.09
2023-01-06T03:32:05.114Z,101198.66
2023-01-06T03:34:58.131Z,101206.69
2023-01-06T03:37:40.074Z,101206.39
2023-01-06T03:40:26.350Z,101210.16
2023-01-06T03:43:16.600Z,101213.48
2023-01-06T03:46:03.698Z,101211.89
2023-01-06T03:48:52.672Z,101204.98
2023-01-06T03:51:38.192Z,101190.80
2023-01-06T03:54:19.925Z,101207.67
2023-01-06T03:56:58.727Z,101209.86
2023-01-06T03:59:36.605Z,101203.73
2023-01-06T04:02:09.752Z,101195.20
2023-01-06T04:04:42.589Z,101199.66
2023-01-06T04:07:16.247Z,101204.41
2023-01-06T04:09:49.091Z,101208.36
2023-01-06T04:12:40.097Z,101205.69
2023-01-06T04:15:17.956Z,101204.70
2023-01-06T04:17:52.013Z,101203.54
2023-01-06T04:20:27.479Z,101209.33
2023-01-06T04:23:11.571Z,101213.39
2023-01-06T04:25:45.330Z,101207.94
2023-01-06T04:28:44.195Z,101205.36
2023-01-06T04:31:16.736Z,101203.34
2023-01-06T04:33:49.267Z,101204.21
2023-01-06T04:36:22.123Z,101200.70
2023-01-06T04:38:57.070Z,101203.11
2023-01-06T04:41:32.138Z,101201.92
2023-01-06T04:44:04.697Z,101204.73
2023-01-06T04:46:37.132Z,101207.16
2023-01-06T04:49:09.879Z,101203.66
2023-01-06T04:51:42.195Z,101206.89
2023-01-06T04:54:14.573Z,101204.35
2023-01-06T04:56:47.041Z,101189.46
2023-01-06T04:59:19.632Z,101198.88
2023-01-06T05:01:52.168Z,101192.11
2023-01-06T05:04:25.049Z,101193.67
2023-01-06T05:06:57.403Z,101188.17
2023-01-06T05:09:29.836Z,101190.40
2023-01-06T05:12:02.526Z,101193.60
2023-01-06T05:14:35.037Z,101187.23
2023-01-06T05:17:07.452Z,101187.60
2023-01-06T05:19:41.789Z,101190.73
2023-01-06T05:22:15.106Z,101196.17
2023-01-06T05:24:47.478Z,101189.56
2023-01-06T05:27:19.782Z,101193.17
2023-01-06T05:29:52.273Z,101177.02
2023-01-06T05:32:24.602Z,101199.05
2023-01-06T05:34:57.024Z,101215.17
2023-01-06T05:37:29.386Z,101220.41
2023-01-06T05:40:01.829Z,101213.52
2023-01-06T05:42:34.829Z,101210.50
2023-01-06T05:45:10.391Z,101208.92
2023-01-06T05:47:43.711Z,101188.18
2023-01-06T05:50:16.172Z,101186.73
2023-01-06T05:52:48.666Z,101197.38
2023-01-06T05:55:21.069Z,101191.96
2023-01-06T05:57:53.377Z,101193.05
2023-01-06T06:00:26.433Z,101201.95
2023-01-06T06:02:59.486Z,101176.91
2023-01-06T06:05:31.937Z,101211.74
2023-01-06T06:08:04.552Z,101208.18
2023-01-06T06:10:37.017Z,101208.94
2023-01-06T06:13:09.723Z,101208.34
2023-01-06T06:15:42.045Z,101189.02
2023-01-06T06:18:14.448Z,101214.73
2023-01-06T06:20:47.550Z,101217.49
2023-01-06T06:23:20.858Z,101220.33
2023-01-06T06:25:54.150Z,101222.48
2023-01-06T06:28:26.871Z,101214.98
2023-01-06T06:31:04.091Z,101210.30
2023-01-06T06:33:36.949Z,101203.75
2023-01-06T06:36:16.201Z,101206.83
2023-01-06T06:38:50.279Z,101211.58
2023-01-06T06:41:24.126Z,101211.54
2023-01-06T06:43:57.183Z,101211.67
2023-01-06T06:46:29.498Z,101194.73
2023-01-06T06:49:01.998Z,101209.40
2023-01-06T06:51:35.597Z,101201.55
2023-01-06T06:54:07.563Z,101204.09
2023-01-06T06:56:39.902Z,101203.84
2023-01-06T06:59:14.459Z,101199.71
2023-01-06T07:01:46.896Z,101195.80
2023-01-06T07:04:19.280Z,101194.61
2023-01-06T07:06:58.958Z,101192.83
2023-01-06T07:09:31.318Z,101188.99
2023-01-06T07:12:03.874Z,101189.34
2023-01-06T07:14:36.633Z,101189.41
2023-01-06T07:17:09.199Z,101187.48
2023-01-06T07:19:41.543Z,101168.08
2023-01-06T07:22:14.057Z,101180.00
2023-01-06T07:24:46.390Z,101184.20
2023-01-06T07:27:19.016Z,101181.92
2023-01-06T07:29:51.360Z,101181.53
2023-01-06T07:32:23.805Z,101181.96
2023-01-06T07:34:56.117Z,101181.82
2023-01-06T07:37:28.580Z,101182.70
2023-01-06T07:40:01.254Z,101174.89
2023-01-06T07:42:33.821Z,101179.58
2023-01-06T07:45:09.832Z,101160.84
2023-01-06T07:47:42.646Z,101177.69
2023-01-06T07:50:14.999Z,101176.59
2023-01-06T07:52:47.447Z,101172.74
2023-01-06T07:55:32.241Z,101164.73
2023-01-06T07:58:11.424Z,101157.95
2023-01-06T08:00:43.901Z,101155.30
2023-01-06T08:03:16.367Z,101160.15
2023-01-06T08:05:49.088Z,101168.40
2023-01-06T08:08:22.434Z,101166.80
2023-01-06T08:10:55.017Z,101164.89
2023-01-06T08:13:27.590Z,101159.27
2023-01-06T08:16:00.553Z,101153.55
2023-01-06T08:18:33.762Z,101131.80
2023-01-06T08:21:07.733Z,101127.81
2023-01-06T08:23:40.859Z,101144.55
2023-01-06T08:26:15.944Z,101146.15
2023-01-06T08:28:49.201Z,101153.24
2023-01-06T08:31:23.486Z,101159.36
2023-01-06T08:33:55.978Z,101163.73
2023-01-06T08:36:29.197Z,101163.27
2023-01-06T08:39:01.739Z,101164.17
2023-01-06T08:41:34.154Z,101173.09
2023-01-06T08:44:07.266Z,101171.06
2023-01-06T08:46:40.642Z,101168.89
2023-01-06T08:49:13.206Z,101169.80
2023-01-06T08:51:45.628Z,101166.29
2023-01-06T08:54:18.384Z,101164.24
2023-01-06T08:56:56.290Z,101156.71
2023-01-06T08:59:33.878Z,101150.09
2023-01-06T09:02:06.714Z,101142.33
2023-01-06T09:04:39.984Z,101125.38
2023-01-06T09:07:12.359Z,101140.08
2023-01-06T09:09:44.861Z,101140.61
2023-01-06T09:12:17.670Z,101133.21
2023-01-06T09:14:50.704Z,101125.84
2023-01-06T09:17:23.547Z,101126.48
2023-01-06T09:19:55.996Z,101123.69
2023-01-06T09:22:28.727Z,101121.89
2023-01-06T09:25:01.313Z,101113.65
2023-01-06T09:27:33.630Z,101109.25
2023-01-06T09:30:08.159Z,101107.19
2023-01-06T09:32:40.568Z,101084.98
2023-01-06T09:35:13.620Z,101102.66
2023-01-06T09:37:46.138Z,101097.31
2023-01-06T09:40:24.781Z,101075.23
2023-01-06T09:43:24.478Z,101086.02
2023-01-06T09:46:03.022Z,101078.65
2023-01-06T09:48:39.934Z,101077.27
2023-01-06T09:51:22.082Z,101069.85
2023-01-06T09:53:59.524Z,101069.52
2023-01-06T09:56:32.663Z,101070.74
2023-01-06T09:59:13.828Z,101077.56
2023-01-06T10:01:52.326Z,101067.23
2023-01-06T10:04:42.310Z,101064.85
2023-01-06T10:07:47.937Z,101054.66
2023-01-06T10:10:28.893Z,101056.96
2023-01-06T10:13:17.251Z,101057.45
2023-01-06T10:15:54.465Z,101051.20
2023-01-06T10:18:38.278Z,101040.20
2023-01-06T10:21:19.475Z,101034.57
2023-01-06T10:24:08.402Z,101024.59
2023-01-06T10:26:46.183Z,101018.86
2023-01-06T10:29:21.320Z,101017.27
2023-01-06T10:31:57.946Z,101015.96
2023-01-06T10:34:33.907Z,101011.27
2023-01-06T10:37:18.015Z,101008.02
2023-01-06T10:39:57.145Z,101007.30
2023-01-06T10:42:53.590Z,101006.55
2023-01-06T10:45:30.775Z,101001.10
2023-01-06T10:48:08.041Z,100990.00
2023-01-06T10:50:40.979Z,100980.21
2023-01-06T10:53:15.611Z,100973.14
2023-01-06T10:55:53.208Z,100962.81
2023-01-06T10:58:35.815Z,100963.20
2023-01-06T11:01:12.971Z,100933.16
2023-01-06T11:03:45.963Z,100932.40
2023-01-06T11:06:25.342Z,100924.74
2023-01-06T11:08:58.412Z,100918.26
2023-01-06T11:11:31.707Z,100913.86
2023-01-06T11:14:06.547Z,100900.69
2023-01-06T11:16:39.862Z,100884.69
2023-01-06T11:19:33.461Z,100895.23
2023-01-06T11:22:07.213Z,100884.00
2023-01-06T11:24:53.553Z,100882.82
2023-01-06T11:27:26.228Z,100876.62
2023-01-06T11:29:58.760Z,100896.12
2023-01-06T11:32:32.596Z,100886.34
2023-01-06T11:35:09.152Z,100879.77
2023-01-06T11:37:43.410Z,100879.55
2023-01-06T11:40:25.861Z,100881.02
2023-01-06T11:43:03.390Z,100880.77
2023-01-06T11:45:39.282Z,100873.77
2023-01-06T11:48:20.479Z,100863.09
2023-01-06T11:50:58.312Z,100861.37
2023-01-06T11:53:33.565Z,100857.30
2023-01-06T11:56:09.182Z,100851.55
2023-01-06T11:58:55.056Z,100824.54
2023-01-06T12:01:33.389Z,100829.55
2023-01-06T12:04:13.834Z,100824.41
2023-01-06T12:06:47.863Z,100821.69
2023-01-06T12:09:25.578Z,100812.84
2023-01-06T12:12:00.758Z,100807.81
2023-01-06T12:14:36.808Z,100808.11
2023-01-06T12:17:13.850Z,100806.90
2023-01-06T12:19:51.156Z,100798.13
2023-01-06T12:22:30.493Z,100797.52
2023-01-06T12:25:04.070Z,100799.96
2023-01-06T12:27:43.389Z,100798.93
2023-01-06T12:30:24.248Z,100797.73
2023-01-06T12:32:59.922Z,100794.94
2023-01-06T12:35:37.857Z,100783.82
2023-01-06T12:38:28.561Z,100779.21
2023-01-06T12:41:07.095Z,100770.05
2023-01-06T12:43:42.340Z,100768.59
2023-01-06T12:46:22.729Z,100744.46
2023-01-06T12:48:59.107Z,100752.55
2023-01-06T12:51:37.129Z,100751.55
2023-01-06T12:54:16.168Z,100753.23
2023-01-06T12:57:06.600Z,100745.31
2023-01-06T12:59:52.041Z,100746.23
2023-01-06T13:02:43.208Z,100745.86
2023-01-06T13:05:34.275Z,100739.48
2023-01-06T13:08:22.675Z,100738.27
2023-01-06T13:11:01.590Z,100740.14
2023-01-06T13:13:50.599Z,100742.33
2023-01-06T13:16:28.627Z,100742.46
2023-01-06T13:19:13.696Z,100739.16
2023-01-06T13:21:45.592Z,100734.33
2023-01-06T13:24:31.461Z,100733.89
2023-01-06T13:27:35.168Z,100723.71
2023-01-06T13:30:27.251Z,100725.73
2023-01-06T13:33:12.321Z,100713.38
2023-01-06T13:35:58.276Z,100728.92
2023-01-06T13:38:43.555Z,100710.09
2023-01-06T13:41:19.885Z,100727.23
2023-01-06T13:43:55.855Z,100717.69
2023-01-06T13:46:31.943Z,100719.77
2023-01-06T13:49:07.108Z,100719.57
2023-01-06T13:51:44.405Z,100719.24
2023-01-06T13:55:03.107Z,100724.23
2023-01-06T13:57:39.193Z,100724.30
2023-01-06T14:00:25.443Z,100725.36
2023-01-06T14:03:27.806Z,100726.52
2023-01-06T14:06:06.750Z,100703.66
2023-01-06T14:08:49.164Z,100714.08
2023-01-06T14:11:31.906Z,100706.26
2023-01-06T14:14:08.673Z,100724.83
2023-01-06T14:16:47.528Z,100712.39
2023-01-06T14:19:23.123Z,100706.09
2023-01-06T14:22:14.495Z,100703.83
2023-01-06T14:24:53.598Z,100685.94
2023-01-06T14:27:56.518Z,100700.27
2023-01-06T14:30:31.841Z,100696.77
2023-01-06T14:33:23.671Z,100690.86
2023-01-06T14:36:05.149Z,100685.34
2023-01-06T14:38:46.072Z,100683.77
2023-01-06T14:41:26.080Z,100679.33
2023-01-06T14:44:03.020Z,100670.56
2023-01-06T14:46:41.310Z,100679.48
2023-01-06T14:49:20.960Z,100678.22
2023-01-06T14:51:58.947Z,100675.77
2023-01-06T14:54:37.811Z,100668.33
2023-01-06T14:57:27.674Z,100647.29
2023-01-06T15:00:15.514Z,100665.24
2023-01-06T15:02:51.516Z,100661.11
2023-01-06T15:05:27.635Z,100654.82
2023-01-06T15:08:05.845Z,100656.65
2023-01-06T15:10:43.071Z,100652.39
2023-01-06T15:13:29.832Z,100648.59
2023-01-06T15:16:05.968Z,100648.54
2023-01-06T15:18:43.443Z,100651.58
2023-01-06T15:21:17.997Z,100645.79
2023-01-06T15:23:53.426Z,100641.98
2023-01-06T15:26:29.044Z,100634.45
2023-01-06T15:29:06.212Z,100629.80
2023-01-06T15:31:42.751Z,100626.98
2023-01-06T15:34:18.977Z,100614.54
2023-01-06T15:36:55.397Z,100627.76
2023-01-06T15:39:31.366Z,100630.28
2023-01-06T15:42:08.552Z,100629.77
2023-01-06T15:44:43.457Z,100635.35
2023-01-06T15:47:29.956Z,100640.77
2023-01-06T15:50:05.118Z,100638.81
2023-01-06T15:52:41.411Z,100634.84
2023-01-06T15:55:28.901Z,100640.80
2023-01-06T15:58:08.295Z,100648.95
2023-01-06T16:00:49.304Z,100643.95
2023-01-06T16:03:24.715Z,100636.92
2023-01-06T16:06:12.292Z,100640.30
2023-01-06T16:08:47.380Z,100639.59
2023-01-06T16:11:49.479Z,100635.23
2023-01-06T16:14:36.214Z,100636.90
2023-01-06T16:17:12.218Z,100634.29
2023-01-06T16:19:50.972Z,100618.02
2023-01-06T16:22:38.830Z,100632.63
2023-01-06T16:25:27.490Z,100636.24
2023-01-06T16:28:02.367Z,100629.27
2023-01-06T16:30:36.725Z,100629.61
2023-01-06T16:33:39.039Z,100620.67
2023-01-06T16:36:20.140Z,100616.41
2023-01-06T16:38:52.835Z,100623.35
2023-01-06T16:41:25.498Z,100617.08
2023-01-06T16:43:58.059Z,100615.50
2023-01-06T16:46:30.843Z,100614.16
2023-01-06T16:49:11.172Z,100617.65
2023-01-06T16:51:45.445Z,100617.68
2023-01-06T16:54:18.912Z,100610.30
2023-01-06T16:56:52.304Z,100610.42
2023-01-06T16:59:25.644Z,100614.00
2023-01-06T17:01:58.850Z,100616.81
2023-01-06T17:04:32.307Z,100619.89
2023-01-06T17:07:07.868Z,100620.02
2023-01-06T17:09:41.607Z,100620.52
2023-01-06T17:12:36.603Z,100626.30
2023-01-06T17:15:13.782Z,100635.17
2023-01-06T17:17:46.629Z,100635.63
2023-01-06T17:20:19.656Z,100641.25
2023-01-06T17:22:52.323Z,100649.09
2023-01-06T17:25:25.583Z,100655.79
2023-01-06T17:27:58.062Z,100649.31
2023-01-06T17:30:30.548Z,100644.59
2023-01-06T17:33:05.303Z,100643.47
2023-01-06T17:35:37.708Z,100646.77
2023-01-06T17:38:19.608Z,100648.30
2023-01-06T17:40:54.925Z,100647.65
2023-01-06T17:43:33.673Z,100654.48
2023-01-06T17:46:20.543Z,100653.70
2023-01-06T17:48:57.757Z,100649.63
2023-01-06T17:51:30.374Z,100652.17
2023-01-06T17:54:22.238Z,100659.48
2023-01-06T17:56:55.315Z,100663.29
2023-01-06T17:59:28.088Z,100665.83
2023-01-06T18:02:02.011Z,100667.22
2023-01-06T18:04:34.813Z,100676.23
2023-01-06T18:07:15.134Z,100674.85
2023-01-06T18:09:49.248Z,100678.45
2023-01-06T18:12:22.224Z,100679.14
2023-01-06T18:14:55.838Z,100681.66
2023-01-06T18:17:30.285Z,100683.36
2023-01-06T18:20:03.398Z,100673.14
2023-01-06T18:22:40.747Z,100674.60
2023-01-06T18:25:20.831Z,100693.29
2023-01-06T18:27:54.205Z,100691.28
2023-01-06T18:30:28.136Z,100679.73
2023-01-06T18:33:02.155Z,100700.57
2023-01-06T18:35:36.034Z,100687.84
2023-01-06T18:38:09.143Z,100713.77
2023-01-06T18:40:45.675Z,100714.20
2023-01-06T18:43:27.883Z,100721.04
2023-01-06T18:46:03.630Z,100718.55
2023-01-06T18:48:39.276Z,100708.00
2023-01-06T18:51:23.685Z,100729.84
2023-01-06T18:54:09.292Z,100732.95
2023-01-06T18:56:44.779Z,100733.52
2023-01-06T18:59:27.445Z,100731.71
2023-01-06T19:02:12.522Z,100737.39
2023-01-06T19:04:49.282Z,100741.48
2023-01-06T19:07:28.861Z,100727.23
2023-01-06T19:10:04.151Z,100745.46
2023-01-06T19:12:40.387Z,100746.06
2023-01-06T19:15:27.896Z,100748.11
2023-01-06T19:18:01.537Z,100736.42
2023-01-06T19:20:39.576Z,100750.09
2023-01-06T19:23:20.525Z,100753.39
2023-01-06T19:26:01.425Z,100758.45
2023-01-06T19:28:37.257Z,100762.20
2023-01-06T19:31:22.549Z,100769.85
2023-01-06T19:34:00.565Z,100771.08
2023-01-06T19:36:47.147Z,100773.01
2023-01-06T19:39:31.661Z,100772.47
2023-01-06T19:42:18.482Z,100781.02
2023-01-06T19:44:55.931Z,100783.05
2023-01-06T19:47:35.830Z,100773.21
2023-01-06T19:50:19.924Z,100790.52
2023-01-06T19:52:58.890Z,100794.58
2023-01-06T19:55:33.985Z,100800.58
2023-01-06T19:58:15.436Z,100801.04
2023-01-06T20:00:49.744Z,100800.27
2023-01-06T20:03:30.492Z,100802.29
2023-01-06T20:06:03.459Z,100806.36
2023-01-06T20:08:36.451Z,100812.52
2023-01-06T20:11:09.664Z,100819.27
2023-01-06T20:13:43.567Z,100819.65
2023-01-06T20:16:17.729Z,100822.77
2023-01-06T20:18:51.286Z,100827.27
2023-01-06T20:21:24.480Z,100833.84
2023-01-06T20:23:58.794Z,100836.42
2023-01-06T20:26:34.216Z,100838.56
2023-01-06T20:29:08.369Z,100830.11
2023-01-06T20:31:41.371Z,100828.29
2023-01-06T20:34:14.695Z,100825.32
2023-01-06T20:36:48.145Z,100823.11
2023-01-06T20:39:21.577Z,100828.06
2023-01-06T20:41:55.041Z,100835.91
2023-01-06T20:44:28.195Z,100835.25
2023-01-06T20:47:01.804Z,100824.02
2023-01-06T20:49:35.156Z,100840.85
2023-01-06T20:52:08.389Z,100842.73
2023-01-06T20:54:42.151Z,100849.30
2023-01-06T20:57:15.273Z,100852.83
2023-01-06T20:59:49.098Z,100852.56
2023-01-06T21:02:22.222Z,100850.26
2023-01-06T21:04:55.442Z,100859.71
2023-01-06T21:07:28.570Z,100843.98
2023-01-06T21:10:01.441Z,100862.25
2023-01-06T21:12:34.539Z,100867.11
2023-01-06T21:15:10.419Z,100866.92
2023-01-06T21:17:44.473Z,100857.24
2023-01-06T21:20:17.920Z,100877.40
2023-01-06T21:22:51.397Z,100882.27
2023-01-06T21:25:25.235Z,100883.45
2023-01-06T21:27:58.747Z,100885.02
2023-01-06T21:30:32.818Z,100889.22
2023-01-06T21:33:06.338Z,100888.40
2023-01-06T21:35:39.764Z,100887.77
2023-01-06T21:38:12.815Z,100883.52
2023-01-06T21:40:46.015Z,100886.89
2023-01-06T21:43:19.505Z,100871.39
2023-01-06T21:45:53.051Z,100904.64
2023-01-06T21:48:27.148Z,100905.58
2023-01-06T21:51:00.137Z,100912.78
2023-01-06T21:53:33.603Z,100918.23
2023-01-06T21:56:08.718Z,100920.52
2023-01-06T21:58:42.082Z,100924.08
2023-01-06T22:01:15.862Z,100925.56
2023-01-06T22:03:49.058Z,100927.95
2023-01-06T22:06:24.083Z,100929.52
2023-01-06T22:08:55.697Z,100930.38
2023-01-06T22:11:29.052Z,100930.84
2023-01-06T22:14:02.574Z,100931.86
2023-01-06T22:16:36.120Z,100935.90
2023-01-06T22:19:10.697Z,100922.75
2023-01-06T22:21:45.705Z,100939.17
2023-01-06T22:24:19.917Z,100941.63
2023-01-06T22:26:52.967Z,100947.96
2023-01-06T22:29:25.902Z,100947.54
2023-01-06T22:32:04.204Z,100958.58
2023-01-06T22:34:37.434Z,100957.50
2023-01-06T22:37:10.496Z,100957.77
2023-01-06T22:39:45.549Z,100945.20
2023-01-06T22:42:19.563Z,100960.85
2023-01-06T22:44:54.130Z,100944.21
2023-01-06T22:47:27.337Z,100955.88
2023-01-06T22:50:00.689Z,100959.27
2023-01-06T22:52:33.873Z,100961.38
2023-01-06T22:55:10.256Z,100964.95
2023-01-06T22:57:43.300Z,100967.58
2023-01-06T23:00:19.899Z,100965.71
2023-01-06T23:02:52.793Z,100968.23
2023-01-06T23:05:25.788Z,100968.00
2023-01-06T23:07:58.539Z,100966.44
2023-01-06T23:10:31.134Z,100968.48
2023-01-06T23:13:04.396Z,100967.78
2023-01-06T23:15:38.749Z,100949.48
2023-01-06T23:18:12.727Z,100967.77
2023-01-06T23:20:56.858Z,100963.60
2023-01-06T23:23:30.739Z,100963.81
2023-01-06T23:26:08.133Z,100963.82
2023-01-06T23:28:41.358Z,100947.48
2023-01-06T23:31:16.605Z,100964.40
2023-01-06T23:33:51.166Z,100967.89
2023-01-06T23:36:24.400Z,100969.73
2023-01-06T23:38:58.191Z,100969.24
2023-01-06T23:41:34.780Z,100965.02
2023-01-06T23:44:11.805Z,100964.57
2023-01-06T23:46:48.726Z,100965.38
2023-01-06T23:49:32.943Z,100969.64
2023-01-06T23:52:07.323Z,100968.77
2023-01-06T23:54:46.253Z,100973.18
2023-01-06T23:57:21.555Z,100979.44
2023-01-06T23:59:56.579Z,100980.28
